Time;durP1;ratioP1;P1;durP2;ratioP2;P2;SDS_P1;SDS_P2;PMS_P1;PMS_P2;Temp;Humidity;BMP_temperature;BMP_pressure;BME280_temperature;BME280_humidity;BME280_pressure;Samples;Min_cycle;Max_cycle;Signal;HPM_P1;HPM_P2
2023/10/03 00:00:49;;;;;;;;;;;;;;;27.03;35.42;101692.09;5075785;28;1058;-41
2023/10/03 00:03:15;;;;;;;;;;;;;;;26.97;35.48;101682.78;5075972;28;1061;-42
2023/10/03 00:05:42;;;;;;;;;;;;;;;27.02;35.53;101679.63;5075999;28;2628;-43
2023/10/03 00:08:08;;;;;;;;;;;;;;;26.90;35.67;101684.41;5076433;28;1109;-42
2023/10/03 00:10:35;;;;;;;;;;;;;;;27.01;35.55;101680.56;5076752;28;1067;-42
2023/10/03 00:13:01;;;;;;;;;;;;;;;26.97;35.56;101676.50;5076244;28;1802;-43
2023/10/03 00:15:30;;;;;;;;;;;;;;;26.93;35.29;101684.06;5075899;28;1011;-41
2023/10/03 00:17:55;;;;;;;;;;;;;;;26.84;35.38;101680.47;5076052;28;1086;-43
2023/10/03 00:20:22;;;;;;;;;;;;;;;26.94;35.61;101693.88;5076253;28;1206;-43
2023/10/03 00:22:48;;;;;;;;;;;;;;;26.88;35.28;101684.56;5076388;28;1030;-42
2023/10/03 00:25:24;;;;;;;;;;;;;;;27.05;35.09;101683.84;5075942;28;1984;-42
2023/10/03 00:27:54;;;;;;;;;;;;;;;26.94;35.43;101679.53;5076354;28;1050;-41
2023/10/03 00:30:21;;;;;;;;;;;;;;;26.95;35.54;101682.06;5057223;28;2150;-42
2023/10/03 00:32:47;;;;;;;;;;;;;;;26.87;35.25;101688.28;5075350;28;1038;-43
2023/10/03 00:35:14;;;;;;;;;;;;;;;26.86;35.46;101683.88;5076782;28;1047;-42
2023/10/03 00:37:40;;;;;;;;;;;;;;;26.70;35.53;101672.94;5076161;28;1058;-42
2023/10/03 00:40:31;;;;;;;;;;;;;;;26.88;35.59;101664.81;5076262;28;1046;-43
2023/10/03 00:42:59;;;;;;;;;;;;;;;26.92;35.68;101671.59;5076177;28;1462;-43
2023/10/03 00:45:31;;;;;;;;;;;;;;;26.92;35.35;101668.03;5076024;28;1910;-43
2023/10/03 00:48:00;;;;;;;;;;;;;;;26.73;35.53;101681.59;5076541;28;1038;-42
2023/10/03 00:50:26;;;;;;;;;;;;;;;26.89;35.67;101677.31;5074107;28;1263;-42
2023/10/03 00:52:55;;;;;;;;;;;;;;;26.80;35.45;101679.09;5076439;28;1101;-42
2023/10/03 00:55:21;;;;;;;;;;;;;;;26.90;35.44;101668.19;5075024;28;1157;-42
2023/10/03 00:57:47;;;;;;;;;;;;;;;26.89;35.42;101677.31;5107837;28;1091;-43
2023/10/03 01:00:15;;;;;;;;;;;;;;;26.81;35.69;101685.38;5076028;28;1150;-42
2023/10/03 01:02:48;;;;;;;;;;;;;;;26.88;35.46;101679.16;5091715;28;1163;-41
2023/10/03 01:05:16;;;;;;;;;;;;;;;26.86;35.60;101693.84;5076071;28;1913;-42
2023/10/03 01:07:44;;;;;;;;;;;;;;;26.84;35.72;101690.44;5076343;28;1121;-42
2023/10/03 01:10:12;;;;;;;;;;;;;;;26.82;35.59;101687.03;5074614;28;1291;-43
2023/10/03 01:12:38;;;;;;;;;;;;;;;26.74;35.86;101679.75;5083900;28;1113;-42
2023/10/03 01:15:10;;;;;;;;;;;;;;;26.85;35.96;101690.28;5080689;28;916;-42
2023/10/03 01:17:37;;;;;;;;;;;;;;;26.75;36.01;101684.97;5091910;28;1129;-40
2023/10/03 01:20:08;;;;;;;;;;;;;;;26.74;36.08;101683.28;5075842;28;1153;-40
2023/10/03 01:22:37;;;;;;;;;;;;;;;26.67;35.75;101681.38;5075819;28;1038;-43
2023/10/03 01:25:04;;;;;;;;;;;;;;;26.78;35.82;101687.38;5076050;28;1967;-41
2023/10/03 01:27:30;;;;;;;;;;;;;;;26.80;35.61;101684.50;5075319;28;872;-41
2023/10/03 01:29:55;;;;;;;;;;;;;;;26.83;35.53;101692.28;5075570;28;1114;-42
2023/10/03 01:32:21;;;;;;;;;;;;;;;26.85;35.42;101684.03;5075917;28;1178;-42
2023/10/03 01:34:46;;;;;;;;;;;;;;;26.84;35.23;101685.03;5075778;28;1055;-43
2023/10/03 01:37:14;;;;;;;;;;;;;;;26.78;35.51;101686.50;5074587;28;1099;-43
2023/10/03 01:39:39;;;;;;;;;;;;;;;26.73;35.68;101684.28;5073781;28;878;-42
2023/10/03 01:42:06;;;;;;;;;;;;;;;26.65;35.87;101689.63;5075856;28;1026;-43
2023/10/03 01:44:32;;;;;;;;;;;;;;;26.71;35.73;101685.47;5075476;28;1013;-42
2023/10/03 01:46:58;;;;;;;;;;;;;;;26.70;35.47;101684.59;5074512;28;1975;-42
2023/10/03 01:49:24;;;;;;;;;;;;;;;26.63;35.69;101683.53;5073984;28;1087;-42
2023/10/03 01:51:49;;;;;;;;;;;;;;;26.64;35.71;101686.06;5074018;28;1125;-43
2023/10/03 01:54:15;;;;;;;;;;;;;;;26.76;35.28;101678.56;5075883;28;1046;-42
2023/10/03 01:56:42;;;;;;;;;;;;;;;26.73;35.58;101680.72;5074343;28;1183;-42
2023/10/03 01:59:07;;;;;;;;;;;;;;;26.70;35.72;101678.34;5108515;28;1219;-43
2023/10/03 02:01:37;;;;;;;;;;;;;;;26.68;35.54;101685.75;5068659;28;1337;-44
2023/10/03 02:04:03;;;;;;;;;;;;;;;26.73;35.39;101681.59;5075905;28;1056;-42
2023/10/03 02:06:29;;;;;;;;;;;;;;;26.67;35.72;101681.38;5075423;28;1910;-43
2023/10/03 02:08:56;;;;;;;;;;;;;;;26.70;35.41;101676.50;5074747;28;1295;-43
2023/10/03 02:11:26;;;;;;;;;;;;;;;26.66;35.36;101675.13;5079189;28;1050;-42
2023/10/03 02:13:52;;;;;;;;;;;;;;;26.69;35.36;101672.13;5076718;28;1139;-43
2023/10/03 02:16:20;;;;;;;;;;;;;;;26.59;35.47;101669.50;5079113;28;1121;-43
2023/10/03 02:18:45;;;;;;;;;;;;;;;26.63;35.80;101662.78;5078000;28;1364;-43
2023/10/03 02:21:15;;;;;;;;;;;;;;;26.73;35.32;101670.78;5110958;28;1415;-43
2023/10/03 02:23:42;;;;;;;;;;;;;;;26.66;35.41;101669.72;5077101;28;1179;-43
2023/10/03 02:26:10;;;;;;;;;;;;;;;26.63;35.63;101665.50;5077136;28;1906;-41
2023/10/03 02:28:36;;;;;;;;;;;;;;;26.65;35.67;101668.03;5065401;28;1076;-42
2023/10/03 02:31:07;;;;;;;;;;;;;;;26.60;35.73;101664.97;5078615;28;1082;-42
2023/10/03 02:33:39;;;;;;;;;;;;;;;26.61;35.63;101670.19;5078447;28;998;-41
2023/10/03 02:36:06;;;;;;;;;;;;;;;26.62;35.62;101665.66;5078630;28;1047;-41
2023/10/03 02:38:36;;;;;;;;;;;;;;;26.62;35.78;101673.75;5078069;28;1117;-43
2023/10/03 02:41:02;;;;;;;;;;;;;;;26.63;35.60;101673.59;5111371;28;1175;-42
2023/10/03 02:43:38;;;;;;;;;;;;;;;26.58;35.83;101672.34;5077062;28;1209;-40
2023/10/03 02:46:07;;;;;;;;;;;;;;;26.61;35.80;101681.00;5076927;28;1905;-42
2023/10/03 02:48:35;;;;;;;;;;;;;;;26.57;35.93;101671.53;5076993;28;1271;-43
2023/10/03 02:51:02;;;;;;;;;;;;;;;26.48;36.27;101676.00;5076749;28;1285;-43
2023/10/03 02:53:27;;;;;;;;;;;;;;;26.62;35.80;101674.59;5078181;28;1085;-42
2023/10/03 02:55:54;;;;;;;;;;;;;;;26.67;35.84;101676.81;5076745;28;1159;-42
2023/10/03 02:58:20;;;;;;;;;;;;;;;26.62;35.74;101676.44;5078339;28;1023;-42
2023/10/03 03:00:46;;;;;;;;;;;;;;;26.55;36.14;101667.28;5076735;28;1102;-40
2023/10/03 03:03:14;;;;;;;;;;;;;;;26.65;35.80;101670.72;5077553;28;1070;-41
2023/10/03 03:05:41;;;;;;;;;;;;;;;26.64;35.78;101677.97;5110335;27;1905;-43
2023/10/03 03:10:41;;;;;;;;;;;;;;;26.61;36.25;101680.16;5076668;28;1316;-43
2023/10/03 03:13:13;;;;;;;;;;;;;;;26.62;36.33;101681.84;5078272;28;1066;-43
2023/10/03 03:15:44;;;;;;;;;;;;;;;26.57;36.20;101690.41;5076074;28;1225;-41
2023/10/03 03:18:10;;;;;;;;;;;;;;;26.57;36.11;101698.50;5077097;28;2463;-43
2023/10/03 03:20:42;;;;;;;;;;;;;;;26.56;36.26;101695.97;5072063;28;2065;-42
2023/10/03 03:23:10;;;;;;;;;;;;;;;26.70;35.87;101698.09;5085359;28;2227;-43
2023/10/03 03:25:39;;;;;;;;;;;;;;;26.49;36.13;101687.66;5086297;28;1968;-43
2023/10/03 03:28:14;;;;;;;;;;;;;;;26.43;36.17;101689.09;5077126;28;1799;-42
2023/10/03 03:30:45;;;;;;;;;;;;;;;25.96;31.47;101682.06;5077024;28;2248;-43
2023/10/03 03:33:18;;;;;;;;;;;;;;;25.37;31.04;101680.50;5075957;28;1851;-42
2023/10/03 03:35:44;;;;;;;;;;;;;;;25.36;30.23;101687.75;5076975;28;1154;-43
2023/10/03 03:38:15;;;;;;;;;;;;;;;24.82;28.80;101682.94;5076472;28;1070;-43
2023/10/03 03:40:45;;;;;;;;;;;;;;;22.47;30.42;101678.31;5077136;28;875;-42
2023/10/03 03:43:12;;;;;;;;;;;;;;;21.36;32.27;101679.97;5076599;28;1035;-43
2023/10/03 03:45:37;;;;;;;;;;;;;;;21.58;32.05;101683.59;5076374;28;1910;-43
2023/10/03 03:48:06;;;;;;;;;;;;;;;21.44;32.40;101689.22;5076659;28;1197;-41
2023/10/03 03:50:31;;;;;;;;;;;;;;;21.45;32.62;101686.41;5081188;28;1149;-43
2023/10/03 03:52:59;;;;;;;;;;;;;;;22.34;31.25;101683.81;5076658;28;1007;-40
2023/10/03 03:55:29;;;;;;;;;;;;;;;23.65;31.60;101682.69;5075948;28;1051;-42
2023/10/03 03:57:59;;;;;;;;;;;;;;;24.52;29.94;101687.50;5076403;28;1142;-41
2023/10/03 04:00:28;;;;;;;;;;;;;;;23.65;29.76;101677.31;5077114;28;990;-43
2023/10/03 04:02:57;;;;;;;;;;;;;;;22.55;31.19;101683.00;5075884;28;1089;-42
2023/10/03 04:05:22;;;;;;;;;;;;;;;22.04;31.50;101678.19;5077032;28;2188;-42
2023/10/03 04:07:48;;;;;;;;;;;;;;;23.28;31.14;101686.72;5075955;28;1123;-37
2023/10/03 04:10:13;;;;;;;;;;;;;;;22.94;31.06;101683.31;5075765;28;1002;-40
2023/10/03 04:12:42;;;;;;;;;;;;;;;22.67;31.22;101692.72;5076063;28;1071;-39
2023/10/03 04:15:09;;;;;;;;;;;;;;;21.46;32.62;101690.78;5076284;28;1126;-39
2023/10/03 04:17:35;;;;;;;;;;;;;;;21.37;32.42;101692.34;5075490;28;1111;-41
2023/10/03 04:20:00;;;;;;;;;;;;;;;21.61;32.09;101687.84;5076289;28;1217;-39
2023/10/03 04:22:28;;;;;;;;;;;;;;;20.99;32.83;101693.53;5065280;28;1145;-40
2023/10/03 04:24:55;;;;;;;;;;;;;;;23.02;31.37;101692.53;5077457;28;1074;-42
2023/10/03 04:27:20;;;;;;;;;;;;;;;24.20;29.89;101698.38;5076012;28;1906;-42
2023/10/03 04:29:47;;;;;;;;;;;;;;;24.81;29.35;101694.66;5076578;28;1189;-44
2023/10/03 04:32:13;;;;;;;;;;;;;;;25.16;29.55;101706.66;5075843;28;1069;-42
2023/10/03 04:34:38;;;;;;;;;;;;;;;25.15;29.35;101702.28;5076438;28;1059;-42
2023/10/03 04:37:04;;;;;;;;;;;;;;;25.40;29.47;101708.00;5076280;28;1039;-41
2023/10/03 04:39:29;;;;;;;;;;;;;;;25.34;30.02;101711.28;5074563;28;1118;-41
2023/10/03 04:41:55;;;;;;;;;;;;;;;25.39;29.86;101706.28;5076960;28;1118;-44
2023/10/03 04:44:20;;;;;;;;;;;;;;;25.47;29.55;101716.34;5075778;28;1213;-42
2023/10/03 04:46:46;;;;;;;;;;;;;;;25.58;30.19;101711.75;5076293;28;1969;-41
2023/10/03 04:49:12;;;;;;;;;;;;;;;25.64;30.34;101720.09;5075505;28;1237;-42
2023/10/03 04:51:37;;;;;;;;;;;;;;;25.74;30.37;101717.34;5075719;28;1065;-42
2023/10/03 04:54:03;;;;;;;;;;;;;;;25.65;30.44;101716.44;5075906;28;1018;-42
2023/10/03 04:56:28;;;;;;;;;;;;;;;25.76;30.18;101722.59;5076375;28;1154;-41
2023/10/03 04:58:55;;;;;;;;;;;;;;;25.64;30.38;101725.50;5075742;28;1407;-43
2023/10/03 05:01:20;;;;;;;;;;;;;;;25.88;30.69;101725.94;5076264;28;1139;-41
2023/10/03 05:03:46;;;;;;;;;;;;;;;25.88;30.74;101729.50;5075584;28;1034;-41
2023/10/03 05:06:11;;;;;;;;;;;;;;;25.85;31.12;101732.50;5076263;28;1897;-42
2023/10/03 05:08:37;;;;;;;;;;;;;;;25.84;30.49;101733.47;5075398;28;1120;-40
2023/10/03 05:11:03;;;;;;;;;;;;;;;25.94;30.16;101740.69;5075953;28;1181;-40
2023/10/03 05:13:29;;;;;;;;;;;;;;;25.89;30.14;101738.44;5071972;28;1146;-41
2023/10/03 05:15:54;;;;;;;;;;;;;;;25.80;30.05;101734.78;5066026;28;987;-41
2023/10/03 05:18:20;;;;;;;;;;;;;;;25.53;30.57;101744.53;5075046;28;1095;-42
2023/10/03 05:20:45;;;;;;;;;;;;;;;25.87;30.00;101746.69;5067066;28;1241;-41
2023/10/03 05:23:14;;;;;;;;;;;;;;;25.89;29.48;101751.91;5078037;28;1089;-40
2023/10/03 05:25:42;;;;;;;;;;;;;;;25.97;28.65;101743.94;5074532;28;1966;-40
2023/10/03 05:28:11;;;;;;;;;;;;;;;25.90;28.62;101753.59;5074969;28;876;-40
2023/10/03 05:30:38;;;;;;;;;;;;;;;25.97;28.43;101752.00;5074327;28;1401;-40
2023/10/03 05:33:06;;;;;;;;;;;;;;;25.85;28.57;101755.91;5074780;28;1099;-42
2023/10/03 05:35:32;;;;;;;;;;;;;;;25.87;28.51;101749.38;5075394;28;1030;-40
2023/10/03 05:37:58;;;;;;;;;;;;;;;25.70;28.28;101761.78;5075595;28;1104;-43
2023/10/03 05:40:23;;;;;;;;;;;;;;;25.66;28.23;101758.53;5074770;28;1011;-42
2023/10/03 05:42:49;;;;;;;;;;;;;;;25.79;27.81;101762.75;5075538;28;1071;-40
2023/10/03 05:45:18;;;;;;;;;;;;;;;25.96;27.69;101763.78;5077995;28;1965;-42
2023/10/03 05:47:47;;;;;;;;;;;;;;;25.75;27.52;101764.88;5079190;28;1094;-40
2023/10/03 05:50:14;;;;;;;;;;;;;;;25.99;27.24;101760.78;5079183;28;1197;-42
2023/10/03 05:52:40;;;;;;;;;;;;;;;26.00;27.11;101765.19;5087769;28;1015;-43
2023/10/03 05:55:06;;;;;;;;;;;;;;;26.07;27.05;101764.59;5079111;28;1022;-42
2023/10/03 05:57:32;;;;;;;;;;;;;;;26.17;27.21;101770.78;5079344;28;995;-42
2023/10/03 05:59:57;;;;;;;;;;;;;;;25.95;27.68;101770.19;5078730;28;1110;-40
2023/10/03 06:02:23;;;;;;;;;;;;;;;26.06;27.16;101770.97;5078801;28;1095;-41
2023/10/03 06:04:49;;;;;;;;;;;;;;;25.95;27.55;101764.78;5078072;28;1123;-42
2023/10/03 06:07:15;;;;;;;;;;;;;;;25.69;27.90;101773.59;5078780;28;1942;-43
2023/10/03 06:09:41;;;;;;;;;;;;;;;25.46;28.33;101768.50;5078794;28;1174;-41
2023/10/03 06:12:06;;;;;;;;;;;;;;;26.17;27.29;101770.78;5091912;28;1006;-42
2023/10/03 06:14:33;;;;;;;;;;;;;;;26.28;27.26;101777.78;5078754;28;1495;-43
2023/10/03 06:16:58;;;;;;;;;;;;;;;26.43;27.45;101772.75;5078762;28;929;-42
2023/10/03 06:19:24;;;;;;;;;;;;;;;26.58;28.07;101781.16;5078622;28;1182;-43
2023/10/03 06:21:49;;;;;;;;;;;;;;;26.55;28.21;101773.38;5078526;28;1027;-43
2023/10/03 06:24:15;;;;;;;;;;;;;;;26.48;28.97;101781.22;5078967;28;1139;-43
2023/10/03 06:26:44;;;;;;;;;;;;;;;26.59;28.83;101790.94;5078598;28;1918;-43
2023/10/03 06:29:10;;;;;;;;;;;;;;;26.64;29.39;101787.78;5078458;28;1510;-42
2023/10/03 06:31:35;;;;;;;;;;;;;;;26.72;29.15;101785.16;5078275;28;1019;-43
2023/10/03 06:34:01;;;;;;;;;;;;;;;26.76;29.53;101785.69;5078677;28;1089;-42
2023/10/03 06:36:26;;;;;;;;;;;;;;;27.05;29.70;101786.44;5078502;28;1124;-43
2023/10/03 06:38:52;;;;;;;;;;;;;;;27.12;29.89;101796.50;5078546;28;1030;-42
2023/10/03 06:41:19;;;;;;;;;;;;;;;27.12;29.77;101803.72;5077769;28;1055;-41
2023/10/03 06:43:44;;;;;;;;;;;;;;;27.17;29.76;101792.44;5078772;28;1150;-43
2023/10/03 06:46:10;;;;;;;;;;;;;;;27.21;29.81;101785.75;5077935;28;1890;-42
2023/10/03 06:48:35;;;;;;;;;;;;;;;27.45;29.60;101789.59;5075477;28;1029;-43
2023/10/03 06:51:04;;;;;;;;;;;;;;;27.30;30.09;101790.19;5088651;28;1110;-42
2023/10/03 06:53:31;;;;;;;;;;;;;;;27.28;30.20;101794.06;5074957;28;1347;-42
2023/10/03 06:55:57;;;;;;;;;;;;;;;27.10;30.62;101793.09;5086266;28;1109;-43
2023/10/03 06:58:22;;;;;;;;;;;;;;;27.16;30.70;101794.28;5074095;28;1109;-42
2023/10/03 07:00:52;;;;;;;;;;;;;;;27.31;30.25;101788.34;5069243;28;1177;-42
2023/10/03 07:03:17;;;;;;;;;;;;;;;27.35;30.38;101792.41;5082469;28;1042;-42
2023/10/03 07:05:43;;;;;;;;;;;;;;;27.31;30.78;101796.44;5077414;28;1976;-41
2023/10/03 07:08:08;;;;;;;;;;;;;;;27.35;30.71;101798.66;5077813;28;1078;-42
2023/10/03 07:10:34;;;;;;;;;;;;;;;27.42;30.54;101795.31;5077910;28;1145;-42
2023/10/03 07:13:01;;;;;;;;;;;;;;;27.43;30.52;101805.97;5081323;28;1264;-43
2023/10/03 07:15:28;;;;;;;;;;;;;;;27.39;30.76;101801.91;5083882;28;999;-43
2023/10/03 07:17:53;;;;;;;;;;;;;;;27.54;30.58;101807.56;5077382;28;842;-43
2023/10/03 07:20:19;;;;;;;;;;;;;;;27.42;30.64;101804.28;5077787;28;1043;-42
2023/10/03 07:22:44;;;;;;;;;;;;;;;27.44;30.55;101804.97;5077108;28;1116;-43
2023/10/03 07:25:11;;;;;;;;;;;;;;;27.60;30.67;101806.06;5077675;28;1090;-41
2023/10/03 07:27:41;;;;;;;;;;;;;;;27.89;30.20;101804.03;5077538;28;1214;-43
2023/10/03 07:30:07;;;;;;;;;;;;;;;27.83;30.30;101795.56;5077039;28;889;-43
2023/10/03 07:32:32;;;;;;;;;;;;;;;27.73;30.77;101802.94;5077631;28;1154;-43
2023/10/03 07:34:58;;;;;;;;;;;;;;;27.92;30.34;101803.69;5077450;28;1042;-43
2023/10/03 07:37:24;;;;;;;;;;;;;;;27.77;30.58;101800.75;5076715;28;1120;-43
2023/10/03 07:39:50;;;;;;;;;;;;;;;27.59;31.00;101799.78;5077500;28;1135;-43
2023/10/03 07:42:17;;;;;;;;;;;;;;;27.80;30.76;101797.72;5072541;28;1012;-44
2023/10/03 07:44:43;;;;;;;;;;;;;;;28.07;30.23;101796.66;5071568;28;1077;-42
2023/10/03 07:47:09;;;;;;;;;;;;;;;28.13;30.17;101803.25;5070000;28;1983;-43
2023/10/03 07:49:34;;;;;;;;;;;;;;;28.39;29.89;101802.38;5077191;28;1074;-43
2023/10/03 07:52:00;;;;;;;;;;;;;;;28.29;29.82;101797.06;5076863;28;1022;-41
2023/10/03 07:54:26;;;;;;;;;;;;;;;28.10;30.30;101800.88;5076812;28;980;-43
2023/10/03 07:56:51;;;;;;;;;;;;;;;27.96;30.40;101797.78;5076897;28;1178;-42
2023/10/03 07:59:17;;;;;;;;;;;;;;;28.07;30.42;101798.50;5076677;28;1010;-42
2023/10/03 08:01:44;;;;;;;;;;;;;;;28.27;30.17;101796.38;5076676;28;1139;-42
2023/10/03 08:04:12;;;;;;;;;;;;;;;27.93;30.71;101799.97;5076886;28;1090;-43
2023/10/03 08:06:38;;;;;;;;;;;;;;;27.85;31.00;101800.78;5075686;28;1978;-42
2023/10/03 08:09:04;;;;;;;;;;;;;;;28.02;30.51;101803.56;5076870;28;1182;-42
2023/10/03 08:11:30;;;;;;;;;;;;;;;28.08;30.41;101792.94;5076291;28;1046;-42
2023/10/03 08:13:59;;;;;;;;;;;;;;;28.01;30.73;101802.72;5076532;28;1099;-42
2023/10/03 08:16:27;;;;;;;;;;;;;;;27.92;30.88;101801.84;5076311;28;1089;-41
2023/10/03 08:18:58;;;;;;;;;;;;;;;28.27;30.42;101801.78;5076314;28;910;-44
2023/10/03 08:21:27;;;;;;;;;;;;;;;28.12;30.44;101796.16;5076319;28;1090;-43
2023/10/03 08:23:56;;;;;;;;;;;;;;;28.25;30.45;101782.16;5076443;28;1022;-42
2023/10/03 08:26:22;;;;;;;;;;;;;;;28.14;30.58;101788.75;5076088;28;1910;-42
2023/10/03 08:28:59;;;;;;;;;;;;;;;28.09;30.93;101796.50;5076009;28;1202;-40
2023/10/03 08:31:27;;;;;;;;;;;;;;;28.13;30.64;101795.16;5076357;28;1007;-43
2023/10/03 08:33:55;;;;;;;;;;;;;;;28.17;30.57;101780.28;5076563;28;1043;-43
2023/10/03 08:36:27;;;;;;;;;;;;;;;28.20;30.66;101779.09;5075933;28;1062;-43
2023/10/03 08:38:57;;;;;;;;;;;;;;;28.20;30.94;101779.97;5076517;28;1209;-42
2023/10/03 08:41:22;;;;;;;;;;;;;;;28.36;30.63;101775.63;5076137;28;1034;-42
2023/10/03 08:43:53;;;;;;;;;;;;;;;28.32;30.70;101776.94;5075900;28;1125;-43
2023/10/03 08:46:19;;;;;;;;;;;;;;;28.48;30.47;101778.84;5074796;28;1968;-43
2023/10/03 08:48:44;;;;;;;;;;;;;;;28.63;30.35;101789.03;5074989;28;1119;-44
2023/10/03 08:51:13;;;;;;;;;;;;;;;28.52;30.51;101776.66;5075098;28;1058;-43
2023/10/03 08:53:42;;;;;;;;;;;;;;;28.38;30.51;101780.88;5075939;28;1058;-42
2023/10/03 08:56:08;;;;;;;;;;;;;;;28.40;30.59;101787.81;5076415;28;1014;-43
2023/10/03 08:58:34;;;;;;;;;;;;;;;28.45;30.46;101777.34;5075867;28;1106;-43
2023/10/03 09:01:01;;;;;;;;;;;;;;;28.43;30.52;101773.94;5076321;28;1031;-44
2023/10/03 09:03:29;;;;;;;;;;;;;;;28.56;30.18;101781.56;5075873;28;1167;-43
2023/10/03 09:05:58;;;;;;;;;;;;;;;28.54;30.31;101774.63;5075340;28;1902;-42
2023/10/03 09:08:25;;;;;;;;;;;;;;;28.51;30.62;101781.22;5076193;28;1105;-42
2023/10/03 09:10:51;;;;;;;;;;;;;;;28.59;30.48;101773.09;5075726;28;1159;-43
2023/10/03 09:13:23;;;;;;;;;;;;;;;28.66;30.15;101769.75;5075715;28;1046;-43
2023/10/03 09:16:08;;;;;;;;;;;;;;;28.81;29.84;101773.44;5076244;28;1101;-43
2023/10/03 09:18:43;;;;;;;;;;;;;;;28.79;29.78;101775.50;5070591;28;876;-42
2023/10/03 09:21:14;;;;;;;;;;;;;;;28.72;30.38;101772.63;5073027;28;1047;-42
2023/10/03 09:24:01;;;;;;;;;;;;;;;28.93;30.29;101770.38;5089856;28;1122;-43
2023/10/03 09:26:33;;;;;;;;;;;;;;;28.80;30.37;101768.19;5079874;28;1898;-43
2023/10/03 09:29:01;;;;;;;;;;;;;;;28.87;30.27;101763.81;5079896;28;1142;-43
2023/10/03 09:31:26;;;;;;;;;;;;;;;28.99;30.08;101768.91;5079271;28;996;-42
2023/10/03 09:33:52;;;;;;;;;;;;;;;28.77;30.46;101763.13;5079840;28;1015;-42
2023/10/03 09:36:17;;;;;;;;;;;;;;;28.81;30.33;101759.06;5079320;28;1099;-43
2023/10/03 09:38:44;;;;;;;;;;;;;;;28.82;30.50;101763.47;5079642;28;1007;-41
2023/10/03 09:41:17;;;;;;;;;;;;;;;28.88;30.34;101762.78;5078945;28;1086;-43
2023/10/03 09:43:54;;;;;;;;;;;;;;;28.83;30.38;101770.56;5079775;28;1027;-44
2023/10/03 09:46:38;;;;;;;;;;;;;;;28.98;30.26;101757.22;5079741;28;1964;-43
2023/10/03 09:49:08;;;;;;;;;;;;;;;29.02;30.05;101766.69;5079032;28;1066;-43
2023/10/03 09:51:36;;;;;;;;;;;;;;;29.02;30.06;101763.13;5078869;28;1034;-43
2023/10/03 09:54:05;;;;;;;;;;;;;;;29.10;30.01;101746.88;5078721;28;1078;-43
2023/10/03 09:56:36;;;;;;;;;;;;;;;29.06;30.40;101759.09;5078608;28;991;-43
2023/10/03 09:59:05;;;;;;;;;;;;;;;29.20;29.89;101752.09;5095604;28;995;-45
2023/10/03 10:01:32;;;;;;;;;;;;;;;29.34;29.62;101753.25;5078042;28;1134;-42
2023/10/03 10:03:59;;;;;;;;;;;;;;;29.31;29.83;101751.72;5079273;28;1101;-42
2023/10/03 10:06:37;;;;;;;;;;;;;;;29.30;29.77;101741.06;5078413;28;1906;-41
2023/10/03 10:09:23;;;;;;;;;;;;;;;29.41;29.71;101734.44;5102635;27;1170;-42
2023/10/03 10:12:09;;;;;;;;;;;;;;;29.42;29.40;101728.84;5062727;28;1515;-43
2023/10/03 10:14:53;;;;;;;;;;;;;;;29.45;27.27;101733.91;5077815;28;940;-45
2023/10/03 10:17:21;;;;;;;;;;;;;;;29.46;25.93;101730.16;5079176;28;1170;-43
2023/10/03 10:20:05;;;;;;;;;;;;;;;29.32;27.26;101725.47;5078381;28;863;-42
2023/10/03 10:25:41;;;;;;;;;;;;;;;29.06;28.20;101726.56;5060618;28;1975;-40
2023/10/03 10:28:08;;;;;;;;;;;;;;;29.11;28.13;101729.63;5078467;28;1034;-43
2023/10/03 10:30:38;;;;;;;;;;;;;;;29.25;27.46;101721.75;5073148;28;1531;-42
2023/10/03 10:33:25;;;;;;;;;;;;;;;29.07;27.95;101714.72;5084160;28;1093;-40
2023/10/03 10:35:59;;;;;;;;;;;;;;;29.09;27.85;101712.69;5078535;28;1193;-41
2023/10/03 10:38:31;;;;;;;;;;;;;;;29.06;28.11;101716.56;5078863;28;1174;-42
2023/10/03 10:41:17;;;;;;;;;;;;;;;29.07;27.72;101715.56;5088240;28;1099;-42
2023/10/03 10:44:05;;;;;;;;;;;;;;;29.11;27.73;101709.78;5075396;28;849;-43
2023/10/03 10:46:35;;;;;;;;;;;;;;;29.06;27.84;101707.63;5063194;28;2051;-43
2023/10/03 10:49:06;;;;;;;;;;;;;;;28.94;27.95;101707.09;5076557;28;984;-43
2023/10/03 10:51:35;;;;;;;;;;;;;;;28.99;27.55;101710.16;5078196;28;999;-41
2023/10/03 10:54:02;;;;;;;;;;;;;;;28.99;27.76;101703.88;5076986;28;1159;-42
2023/10/03 10:56:28;;;;;;;;;;;;;;;29.03;27.23;101706.06;5078284;28;1152;-42
2023/10/03 10:59:01;;;;;;;;;;;;;;;28.98;27.77;101703.03;5077894;28;1055;-43
2023/10/03 11:01:26;;;;;;;;;;;;;;;29.00;27.56;101692.88;5078038;28;1026;-43
2023/10/03 11:03:52;;;;;;;;;;;;;;;29.11;27.55;101688.13;5078350;28;982;-41
2023/10/03 11:06:18;;;;;;;;;;;;;;;29.00;27.56;101692.88;5076642;28;1902;-43
2023/10/03 11:08:47;;;;;;;;;;;;;;;28.84;27.79;101691.84;5077720;28;1117;-43
2023/10/03 11:11:12;;;;;;;;;;;;;;;29.10;27.30;101681.84;5070921;28;1070;-39
2023/10/03 11:13:45;;;;;;;;;;;;;;;29.12;27.50;101681.69;5077433;28;1015;-43
2023/10/03 11:16:11;;;;;;;;;;;;;;;28.94;27.37;101686.28;5078141;28;1126;-43
2023/10/03 11:18:36;;;;;;;;;;;;;;;29.08;27.50;101673.03;5070659;28;1106;-41
2023/10/03 11:21:08;;;;;;;;;;;;;;;29.13;27.41;101676.06;5109755;28;1177;-42
2023/10/03 11:23:34;;;;;;;;;;;;;;;29.07;27.25;101671.38;5077404;28;1114;-40
2023/10/03 11:26:00;;;;;;;;;;;;;;;29.12;27.20;101676.25;5077213;28;1898;-43
2023/10/03 11:28:28;;;;;;;;;;;;;;;28.90;27.02;101673.22;5077253;28;1042;-44
2023/10/03 11:30:59;;;;;;;;;;;;;;;29.07;27.15;101669.50;5076716;28;1085;-43
2023/10/03 11:33:25;;;;;;;;;;;;;;;29.09;26.89;101664.75;5077309;28;1155;-42
2023/10/03 11:35:53;;;;;;;;;;;;;;;29.14;26.94;101666.09;5077151;28;1073;-44
2023/10/03 11:38:19;;;;;;;;;;;;;;;29.04;27.75;101658.19;5076891;28;1289;-43
2023/10/03 11:40:47;;;;;;;;;;;;;;;29.15;26.97;101662.34;5061756;28;1347;-43
2023/10/03 11:43:12;;;;;;;;;;;;;;;29.25;26.94;101652.16;5070325;28;1054;-41
2023/10/03 11:45:39;;;;;;;;;;;;;;;29.36;26.85;101661.78;5109189;28;1967;-44
2023/10/03 11:48:08;;;;;;;;;;;;;;;29.32;27.06;101655.88;5077152;28;1127;-42
2023/10/03 11:50:34;;;;;;;;;;;;;;;29.25;27.16;101660.28;5076800;28;1015;-42
2023/10/03 11:53:00;;;;;;;;;;;;;;;29.27;27.27;101658.25;5076531;28;1044;-41
2023/10/03 11:55:26;;;;;;;;;;;;;;;29.17;27.73;101649.50;5075851;28;1050;-44
2023/10/03 11:57:52;;;;;;;;;;;;;;;29.33;27.08;101660.25;5074164;28;1462;-31
2023/10/03 12:00:17;;;;;;;;;;;;;;;29.10;27.52;101652.06;5076782;28;1256;-26
2023/10/03 12:02:47;;;;;;;;;;;;;;;28.98;27.12;101651.56;5076502;28;1034;-28
2023/10/03 12:05:12;;;;;;;;;;;;;;;29.05;27.30;101654.44;5076967;28;1055;-27
2023/10/03 12:07:39;;;;;;;;;;;;;;;28.98;27.42;101646.16;5076944;28;1906;-29
2023/10/03 12:10:12;;;;;;;;;;;;;;;28.93;27.43;101646.66;5076833;28;1083;-30
2023/10/03 12:12:38;;;;;;;;;;;;;;;28.72;27.80;101650.78;5078096;28;851;-27
2023/10/03 12:15:07;;;;;;;;;;;;;;;29.02;27.46;101649.38;5075131;28;1111;-30
2023/10/03 12:17:33;;;;;;;;;;;;;;;29.15;27.20;101651.53;5072538;28;1047;-27
2023/10/03 12:19:58;;;;;;;;;;;;;;;29.18;27.04;101648.47;5076618;28;1137;-28
2023/10/03 12:22:24;;;;;;;;;;;;;;;28.86;27.55;101645.69;5077441;28;1289;-29
2023/10/03 12:24:49;;;;;;;;;;;;;;;29.10;26.89;101643.91;5080295;28;1211;-32
2023/10/03 12:27:17;;;;;;;;;;;;;;;29.01;27.16;101640.38;5076192;28;1982;-31
2023/10/03 12:29:43;;;;;;;;;;;;;;;28.86;27.55;101637.56;5077700;28;1050;-33
2023/10/03 12:32:08;;;;;;;;;;;;;;;28.84;27.60;101642.28;5080003;28;1077;-27
2023/10/03 12:34:34;;;;;;;;;;;;;;;28.91;27.32;101643.25;5074779;28;1062;-28
2023/10/03 12:37:03;;;;;;;;;;;;;;;28.73;27.84;101632.66;5071854;28;1085;-28
2023/10/03 12:39:31;;;;;;;;;;;;;;;28.94;27.57;101645.66;5078796;28;1189;-29
2023/10/03 12:41:56;;;;;;;;;;;;;;;28.75;28.00;101635.19;5076228;28;1006;-30
2023/10/03 12:44:22;;;;;;;;;;;;;;;28.93;27.94;101630.41;5065444;28;1169;-27
2023/10/03 12:46:49;;;;;;;;;;;;;;;28.79;28.00;101634.69;5077240;28;1911;-30
2023/10/03 12:49:15;;;;;;;;;;;;;;;28.79;27.74;101636.53;5076097;28;994;-30
2023/10/03 12:51:42;;;;;;;;;;;;;;;28.73;27.90;101630.81;5086315;28;1177;-33
2023/10/03 12:54:07;;;;;;;;;;;;;;;28.64;28.18;101634.56;5074945;28;1082;-28
2023/10/03 12:56:33;;;;;;;;;;;;;;;28.69;27.93;101626.75;5075599;28;1201;-29